Time;durP1;ratioP1;P1;durP2;ratioP2;P2;SDS_P1;SDS_P2;PMS_P1;PMS_P2;Temp;Humidity;BMP_temperature;BMP_pressure;BME280_temperature;BME280_humidity;BME280_pressure;Samples;Min_cycle;Max_cycle;Signal;HPM_P1;HPM_P2
2022/03/02 00:01:16;;;;;;;29.92;18.13;;;6.80;99.90;;;;;;5079800;28;20064;-71
2022/03/02 00:03:43;;;;;;;34.08;19.33;;;6.70;99.90;;;;;;5089234;28;20073;-73
2022/03/02 00:06:09;;;;;;;30.83;18.13;;;6.70;99.90;;;;;;5100920;27;20114;-74
2022/03/02 00:08:36;;;;;;;32.55;19.40;;;6.80;99.90;;;;;;5081966;28;20036;-73
2022/03/02 00:11:03;;;;;;;29.40;18.42;;;6.70;99.90;;;;;;5115138;27;20040;-74
2022/03/02 00:13:28;;;;;;;30.90;18.10;;;7.10;99.90;;;;;;5092612;28;20118;-74
2022/03/02 00:15:54;;;;;;;28.30;16.77;;;7.00;99.90;;;;;;5101119;27;20164;-73
2022/03/02 00:18:20;;;;;;;32.17;18.75;;;6.80;99.90;;;;;;5089954;28;20047;-76
2022/03/02 00:20:45;;;;;;;26.67;17.60;;;6.80;99.90;;;;;;5091073;27;20046;-73
2022/03/02 00:23:11;;;;;;;31.63;19.02;;;7.00;99.90;;;;;;5090438;28;20349;-73
2022/03/02 00:25:37;;;;;;;28.88;17.95;;;6.80;99.90;;;;;;5106139;28;20076;-74
2022/03/02 00:28:02;;;;;;;30.70;18.50;;;6.90;99.90;;;;;;5070223;28;20054;-73
2022/03/02 00:30:30;;;;;;;28.23;17.85;;;6.70;99.90;;;;;;5082335;28;20052;-73
2022/03/02 00:32:56;;;;;;;27.30;16.02;;;6.90;99.90;;;;;;5108333;28;20040;-73
2022/03/02 00:35:22;;;;;;;31.90;18.42;;;6.80;99.90;;;;;;5092035;27;20046;-73
2022/03/02 00:37:48;;;;;;;31.48;18.85;;;7.10;99.90;;;;;;5118631;27;20048;-73
2022/03/02 00:40:14;;;;;;;27.58;17.13;;;7.20;99.90;;;;;;5095564;28;20047;-73
2022/03/02 00:42:39;;;;;;;34.47;18.83;;;6.80;99.90;;;;;;5071258;28;20072;-73
2022/03/02 00:45:05;;;;;;;25.58;16.83;;;6.80;99.90;;;;;;5091564;28;20101;-74
2022/03/02 00:47:31;;;;;;;30.50;18.50;;;6.90;99.90;;;;;;5104827;27;20070;-74
2022/03/02 00:49:57;;;;;;;33.33;19.98;;;6.80;99.90;;;;;;5099195;27;20130;-73
2022/03/02 00:52:23;;;;;;;29.35;17.67;;;7.20;99.90;;;;;;5091079;28;20589;-73
2022/03/02 00:54:49;;;;;;;30.92;19.35;;;6.90;99.90;;;;;;5109260;27;20036;-73
2022/03/02 00:57:15;;;;;;;35.20;20.85;;;7.10;99.90;;;;;;5082151;28;20076;-73
2022/03/02 00:59:40;;;;;;;34.05;19.38;;;7.30;99.90;;;;;;5084206;28;20407;-73
2022/03/02 01:02:06;;;;;;;37.15;20.27;;;7.20;99.90;;;;;;5088448;28;20050;-72
2022/03/02 01:04:32;;;;;;;30.52;18.20;;;6.90;99.90;;;;;;5086679;28;20086;-73
2022/03/02 01:06:58;;;;;;;35.65;21.05;;;6.90;99.90;;;;;;5107685;27;20067;-74
2022/03/02 01:09:23;;;;;;;31.55;18.80;;;6.90;99.90;;;;;;5093821;28;20066;-73
2022/03/02 01:11:49;;;;;;;33.60;19.45;;;7.90;99.90;;;;;;5109677;27;20040;-73
2022/03/02 01:14:15;;;;;;;33.58;20.05;;;6.80;99.90;;;;;;5098330;28;20031;-74
2022/03/02 01:16:41;;;;;;;32.75;19.13;;;7.10;99.90;;;;;;5089701;27;20134;-73
2022/03/02 01:19:07;;;;;;;33.92;20.33;;;7.10;99.90;;;;;;5095558;27;20067;-74
2022/03/02 01:21:33;;;;;;;35.33;21.58;;;6.70;99.90;;;;;;5098615;27;20080;-73
2022/03/02 01:23:59;;;;;;;34.65;20.52;;;6.80;99.90;;;;;;5096652;27;20097;-73
2022/03/02 01:26:25;;;;;;;36.78;21.77;;;7.00;99.90;;;;;;5107801;27;20051;-73
2022/03/02 01:28:54;;;;;;;36.30;20.35;;;7.10;99.90;;;;;;5086690;28;20093;-74
2022/03/02 01:31:23;;;;;;;39.03;22.15;;;7.10;99.90;;;;;;5100307;28;20475;-74
2022/03/02 01:33:50;;;;;;;34.75;20.58;;;6.90;99.90;;;;;;5108167;28;20146;-73
2022/03/02 01:36:17;;;;;;;32.85;20.13;;;6.80;99.90;;;;;;5108971;28;20036;-73
2022/03/02 01:38:42;;;;;;;37.95;21.70;;;7.00;99.90;;;;;;5088135;28;20142;-73
2022/03/02 01:41:09;;;;;;;40.75;22.05;;;8.00;99.90;;;;;;5087692;28;20058;-73
2022/03/02 01:43:35;;;;;;;36.05;21.92;;;7.00;99.90;;;;;;5098691;28;20043;-73
2022/03/02 01:46:00;;;;;;;31.95;18.88;;;6.80;99.90;;;;;;5105153;28;20058;-73
2022/03/02 01:48:26;;;;;;;30.13;18.17;;;7.00;99.90;;;;;;5104590;28;20100;-73
2022/03/02 01:50:52;;;;;;;33.22;18.85;;;7.00;99.90;;;;;;5057677;28;20119;-73
2022/03/02 01:53:18;;;;;;;32.92;19.83;;;7.00;99.90;;;;;;5106843;28;20056;-73
2022/03/02 01:55:43;;;;;;;36.03;21.05;;;7.00;99.90;;;;;;5073924;28;20051;-73
2022/03/02 01:58:09;;;;;;;34.92;21.20;;;6.80;99.90;;;;;;5070574;28;20107;-73
2022/03/02 02:00:35;;;;;;;36.30;21.77;;;6.90;99.90;;;;;;5066171;28;20126;-73
2022/03/02 02:03:01;;;;;;;36.42;20.58;;;6.90;99.90;;;;;;5076841;28;20043;-73
2022/03/02 02:05:26;;;;;;;35.92;21.27;;;6.80;99.90;;;;;;5104544;28;20643;-73
2022/03/02 02:07:52;;;;;;;32.65;19.33;;;6.40;99.90;;;;;;5098634;28;20432;-73
2022/03/02 02:10:18;;;;;;;33.90;20.58;;;6.50;99.90;;;;;;5120707;28;20036;-74
2022/03/02 02:12:44;;;;;;;37.47;22.38;;;6.80;99.90;;;;;;5099272;28;20068;-74
2022/03/02 02:15:10;;;;;;;37.67;21.17;;;6.50;99.90;;;;;;5107056;28;20066;-74
2022/03/02 02:17:37;;;;;;;36.90;21.92;;;6.60;99.90;;;;;;5105790;28;20445;-73
2022/03/02 02:20:06;;;;;;;38.67;22.40;;;6.30;99.90;;;;;;5109764;28;20035;-73
2022/03/02 02:22:36;;;;;;;35.83;22.27;;;6.60;99.90;;;;;;5089317;28;20098;-72
2022/03/02 02:25:03;;;;;;;37.95;21.35;;;7.20;99.90;;;;;;5099028;28;20043;-73
2022/03/02 02:27:29;;;;;;;39.75;22.83;;;6.40;99.90;;;;;;5075525;28;20042;-74
2022/03/02 02:29:56;;;;;;;37.65;22.52;;;6.20;99.90;;;;;;5099874;28;20039;-74
2022/03/02 02:32:21;;;;;;;40.70;22.77;;;6.00;99.90;;;;;;5102791;28;20114;-74
2022/03/02 02:34:47;;;;;;;36.13;21.02;;;6.00;99.90;;;;;;5084343;28;20583;-74
2022/03/02 02:37:13;;;;;;;40.75;23.90;;;6.30;99.90;;;;;;5112799;28;20032;-73
2022/03/02 02:39:39;;;;;;;41.25;23.95;;;6.30;99.90;;;;;;5117854;28;20032;-73
2022/03/02 02:42:07;;;;;;;40.45;21.95;;;5.90;99.90;;;;;;5113435;28;20442;-73
2022/03/02 02:44:34;;;;;;;41.20;23.77;;;5.90;99.90;;;;;;5102189;28;20498;-74
2022/03/02 02:46:59;;;;;;;40.83;24.48;;;5.80;99.90;;;;;;5091230;28;20047;-73
2022/03/02 02:49:25;;;;;;;41.20;22.85;;;6.00;99.90;;;;;;5106453;28;20495;-74
2022/03/02 02:51:53;;;;;;;41.08;23.08;;;5.90;99.90;;;;;;5107416;27;20039;-73
2022/03/02 02:54:22;;;;;;;46.35;25.13;;;5.70;99.90;;;;;;5076284;28;20040;-73
2022/03/02 02:56:49;;;;;;;41.80;23.30;;;6.00;99.90;;;;;;5104900;28;20036;-72
2022/03/02 02:59:15;;;;;;;40.05;22.75;;;6.00;99.90;;;;;;5096650;28;20440;-72
2022/03/02 03:01:40;;;;;;;45.20;25.45;;;6.00;99.90;;;;;;5101888;28;20028;-74
2022/03/02 03:04:06;;;;;;;42.42;23.95;;;5.90;99.90;;;;;;5108224;28;20132;-74
2022/03/02 03:06:33;;;;;;;42.72;25.17;;;6.10;99.90;;;;;;5088766;28;20110;-73
2022/03/02 03:08:59;;;;;;;39.67;23.67;;;6.00;99.90;;;;;;5090776;28;20040;-74
2022/03/02 03:11:25;;;;;;;40.75;24.60;;;6.10;99.90;;;;;;5075021;28;20048;-74
2022/03/02 03:13:50;;;;;;;44.78;26.48;;;6.40;99.90;;;;;;5074892;28;20048;-73
2022/03/02 03:16:16;;;;;;;43.60;25.83;;;6.00;99.90;;;;;;5084788;28;20046;-74
2022/03/02 03:18:42;;;;;;;44.13;25.35;;;5.40;99.90;;;;;;5091291;28;20041;-73
2022/03/02 03:21:07;;;;;;;44.30;24.50;;;5.90;99.90;;;;;;5107082;27;20036;-73
2022/03/02 03:23:34;;;;;;;42.55;25.63;;;5.70;99.90;;;;;;5068378;28;20032;-73
2022/03/02 03:26:00;;;;;;;43.25;24.75;;;6.00;99.90;;;;;;5109690;27;20073;-73
2022/03/02 03:28:25;;;;;;;47.05;25.95;;;5.70;99.90;;;;;;5080738;27;20117;-74
2022/03/02 03:30:51;;;;;;;45.25;25.17;;;6.00;99.90;;;;;;5088741;28;20043;-73
2022/03/02 03:33:17;;;;;;;42.65;27.00;;;5.90;99.90;;;;;;5086039;27;20039;-74
2022/03/02 03:35:42;;;;;;;43.90;26.65;;;5.60;99.90;;;;;;5109857;27;20032;-73
2022/03/02 03:38:08;;;;;;;45.75;27.55;;;5.70;99.90;;;;;;5105791;27;20507;-74
2022/03/02 03:40:34;;;;;;;45.53;27.48;;;5.60;99.90;;;;;;5094514;28;20051;-74
2022/03/02 03:43:00;;;;;;;47.03;27.58;;;6.70;99.90;;;;;;5109389;28;20432;-73
2022/03/02 03:45:26;;;;;;;47.22;27.58;;;6.20;99.90;;;;;;5097993;28;20092;-74
2022/03/02 03:47:53;;;;;;;45.70;25.73;;;5.90;99.90;;;;;;5101516;27;20334;-74
2022/03/02 03:50:20;;;;;;;44.08;24.75;;;5.90;99.90;;;;;;5100553;27;20055;-74
2022/03/02 03:52:46;;;;;;;44.13;27.52;;;5.80;99.90;;;;;;5099617;28;20087;-74
2022/03/02 03:55:13;;;;;;;44.30;25.67;;;5.80;99.90;;;;;;5092131;28;20032;-74
2022/03/02 03:57:40;;;;;;;47.85;25.88;;;5.70;99.90;;;;;;5076514;28;20474;-74
2022/03/02 04:00:09;;;;;;;42.47;25.77;;;5.70;99.90;;;;;;5104135;27;20100;-74
2022/03/02 04:02:35;;;;;;;41.22;23.08;;;5.50;99.90;;;;;;5098638;28;20494;-74
2022/03/02 04:05:01;;;;;;;42.47;26.23;;;5.70;99.90;;;;;;5082874;28;20039;-73
2022/03/02 04:07:26;;;;;;;40.13;24.35;;;5.50;99.90;;;;;;5084705;28;20044;-73
2022/03/02 04:09:52;;;;;;;43.90;26.08;;;5.80;99.90;;;;;;5087867;28;20036;-73
2022/03/02 04:12:18;;;;;;;43.47;25.40;;;5.70;99.90;;;;;;5078405;27;20044;-73
2022/03/02 04:14:45;;;;;;;39.50;24.48;;;5.80;99.90;;;;;;5092361;27;20043;-73
2022/03/02 04:17:11;;;;;;;39.10;24.35;;;5.80;99.90;;;;;;5077873;28;20036;-73
2022/03/02 04:19:37;;;;;;;44.58;24.42;;;5.50;99.90;;;;;;5077501;28;20130;-73
2022/03/02 04:22:04;;;;;;;44.13;25.35;;;6.00;99.90;;;;;;5092387;28;20123;-73
2022/03/02 04:24:30;;;;;;;42.58;25.13;;;5.70;99.90;;;;;;5083635;28;20048;-73
2022/03/02 04:26:56;;;;;;;43.75;25.83;;;5.40;99.90;;;;;;5081488;28;20516;-73
2022/03/02 04:29:21;;;;;;;43.20;25.67;;;5.70;99.90;;;;;;5097590;28;20165;-74
2022/03/02 04:31:47;;;;;;;39.70;23.45;;;5.40;99.90;;;;;;5088242;28;20441;-73
2022/03/02 04:34:13;;;;;;;43.92;25.90;;;5.40;99.90;;;;;;5063690;28;20469;-73
2022/03/02 04:36:39;;;;;;;42.80;25.05;;;5.70;99.90;;;;;;5085629;28;20120;-73
2022/03/02 04:39:05;;;;;;;40.53;23.75;;;5.60;99.90;;;;;;5085434;27;20392;-73
2022/03/02 04:41:31;;;;;;;45.33;24.73;;;5.90;99.90;;;;;;5111830;27;20040;-73
2022/03/02 04:43:57;;;;;;;46.22;25.42;;;5.80;99.90;;;;;;5105554;28;20040;-73
2022/03/02 04:46:22;;;;;;;36.85;23.10;;;5.50;99.90;;;;;;5093628;28;20040;-73
2022/03/02 04:48:48;;;;;;;40.88;24.33;;;5.70;99.90;;;;;;5075730;27;20028;-73
2022/03/02 04:51:14;;;;;;;45.33;24.40;;;5.40;99.90;;;;;;5118022;27;20032;-73
2022/03/02 04:53:39;;;;;;;40.05;23.60;;;5.70;99.90;;;;;;5116249;27;20044;-74
2022/03/02 04:56:05;;;;;;;40.80;23.45;;;6.70;99.90;;;;;;5095627;27;20039;-73
2022/03/02 04:58:31;;;;;;;40.30;22.90;;;5.30;99.90;;;;;;5108798;27;20043;-73
2022/03/02 05:00:57;;;;;;;41.25;23.02;;;5.70;99.90;;;;;;5106248;27;20055;-73
2022/03/02 05:03:23;;;;;;;38.63;23.02;;;5.60;99.90;;;;;;5085639;28;20096;-73
2022/03/02 05:05:48;;;;;;;42.03;22.27;;;5.60;99.90;;;;;;5101118;28;20036;-73
2022/03/02 05:08:14;;;;;;;37.88;23.77;;;5.60;99.90;;;;;;5122705;27;20039;-74
2022/03/02 05:10:40;;;;;;;35.25;21.23;;;5.20;99.90;;;;;;5072952;28;20485;-74
2022/03/02 05:13:06;;;;;;;41.83;25.55;;;5.40;99.90;;;;;;5116167;27;20046;-74
2022/03/02 05:15:32;;;;;;;38.78;23.55;;;5.20;99.90;;;;;;5091475;28;20093;-74
2022/03/02 05:17:59;;;;;;;38.42;22.90;;;6.70;99.90;;;;;;5093552;27;20036;-73
2022/03/02 05:20:25;;;;;;;38.55;22.77;;;5.00;99.90;;;;;;5097383;28;20183;-73
2022/03/02 05:22:50;;;;;;;38.30;22.52;;;5.40;99.90;;;;;;5086812;28;20036;-73
2022/03/02 05:25:17;;;;;;;41.20;25.00;;;5.40;99.90;;;;;;5104985;28;20043;-73
2022/03/02 05:27:43;;;;;;;42.28;25.27;;;5.40;99.90;;;;;;5085379;28;20031;-73
2022/03/02 05:30:10;;;;;;;42.22;22.70;;;5.10;99.90;;;;;;5095274;28;21397;-73
2022/03/02 05:32:37;;;;;;;46.78;25.38;;;5.50;99.90;;;;;;5102721;28;20404;-75
2022/03/02 05:35:04;;;;;;;42.35;23.75;;;5.40;99.90;;;;;;5105675;27;20039;-75
2022/03/02 05:37:29;;;;;;;41.53;23.88;;;5.00;99.90;;;;;;5088314;28;20036;-76
2022/03/02 05:39:55;;;;;;;41.03;24.65;;;5.00;99.90;;;;;;5076884;28;20161;-75
2022/03/02 05:42:21;;;;;;;42.88;24.45;;;5.00;99.90;;;;;;5091515;28;20035;-75
2022/03/02 05:44:47;;;;;;;41.03;24.30;;;5.00;99.90;;;;;;5114103;27;20197;-75
2022/03/02 05:47:12;;;;;;;41.80;24.80;;;5.50;99.90;;;;;;5086594;28;20048;-75
2022/03/02 05:49:38;;;;;;;38.90;22.00;;;5.30;99.90;;;;;;5109171;28;20039;-75
2022/03/02 05:52:05;;;;;;;38.25;24.63;;;6.30;99.90;;;;;;5108608;27;20042;-75
2022/03/02 05:54:30;;;;;;;42.13;23.98;;;5.40;99.90;;;;;;5113816;27;20433;-75
2022/03/02 05:56:56;;;;;;;43.08;25.58;;;6.40;99.90;;;;;;5117381;28;20115;-73
2022/03/02 05:59:22;;;;;;;40.05;23.17;;;5.50;99.90;;;;;;5071690;28;20472;-73
2022/03/02 06:01:49;;;;;;;42.40;24.55;;;5.40;99.90;;;;;;5080493;28;20123;-73
2022/03/02 06:04:15;;;;;;;41.83;24.65;;;5.70;99.90;;;;;;5101486;28;20040;-74
2022/03/02 06:06:41;;;;;;;42.70;24.65;;;5.40;99.90;;;;;;5098740;28;20452;-73
2022/03/02 06:09:09;;;;;;;40.90;24.92;;;5.00;99.90;;;;;;5108210;28;20055;-74
2022/03/02 06:11:37;;;;;;;40.00;22.85;;;5.60;99.90;;;;;;5092886;28;20123;-73
2022/03/02 06:14:03;;;;;;;42.90;24.10;;;5.40;99.90;;;;;;5090537;28;20047;-72
2022/03/02 06:16:29;;;;;;;44.03;24.95;;;5.10;99.90;;;;;;5111810;28;20075;-73
2022/03/02 06:18:55;;;;;;;46.38;25.65;;;5.50;99.90;;;;;;5102394;28;20046;-74
2022/03/02 06:21:26;;;;;;;46.60;27.67;;;5.00;99.90;;;;;;5084339;28;20036;-73
2022/03/02 06:23:53;;;;;;;42.83;23.95;;;5.70;99.90;;;;;;5096674;28;20075;-74
2022/03/02 06:26:22;;;;;;;44.72;24.92;;;5.60;99.90;;;;;;5101329;28;20071;-74
2022/03/02 06:28:48;;;;;;;44.92;24.83;;;5.40;99.90;;;;;;5102255;27;20092;-73
2022/03/02 06:31:14;;;;;;;41.10;25.00;;;5.30;99.90;;;;;;5112737;28;20036;-74
2022/03/02 06:33:40;;;;;;;44.70;25.42;;;5.70;99.90;;;;;;5076759;28;20082;-74
2022/03/02 06:36:06;;;;;;;43.20;23.50;;;5.50;99.90;;;;;;5105243;28;20070;-73
2022/03/02 06:38:32;;;;;;;44.47;24.58;;;5.50;99.90;;;;;;5086355;28;20040;-74
2022/03/02 06:41:16;;;;;;;45.30;26.83;;;5.70;99.90;;;;;;5118271;27;20035;-75
2022/03/02 06:44:02;;;;;;;41.97;24.90;;;5.70;99.90;;;;;;5109678;27;20077;-75
2022/03/02 06:46:47;;;;;;;41.97;24.27;;;5.50;99.90;;;;;;5116456;27;20036;-75
2022/03/02 06:49:36;;;;;;;42.42;23.42;;;5.60;99.90;;;;;;5107295;27;20110;-75
2022/03/02 06:52:04;;;;;;;37.85;22.13;;;5.70;99.90;;;;;;5080200;28;20032;-74
2022/03/02 06:54:32;;;;;;;45.72;25.38;;;5.70;99.90;;;;;;5110023;27;20051;-74
2022/03/02 06:57:00;;;;;;;46.50;24.80;;;6.10;99.90;;;;;;5096940;27;20036;-75
2022/03/02 06:59:41;;;;;;;52.55;29.90;;;6.70;99.90;;;;;;5094350;28;20043;-74
2022/03/02 07:02:08;;;;;;;45.13;24.73;;;6.10;99.90;;;;;;5102483;28;20642;-74
2022/03/02 07:04:39;;;;;;;42.00;25.02;;;6.00;99.90;;;;;;5094985;28;20051;-75
2022/03/02 07:07:04;;;;;;;44.55;25.80;;;6.10;99.90;;;;;;5100781;27;20046;-75
2022/03/02 07:09:32;;;;;;;40.97;24.17;;;6.60;99.90;;;;;;5090641;28;20122;-76
2022/03/02 07:12:05;;;;;;;46.38;26.75;;;6.60;99.90;;;;;;5094573;28;20441;-74
2022/03/02 07:14:33;;;;;;;46.15;26.85;;;6.70;99.90;;;;;;5076960;28;20442;-75
2022/03/02 07:17:00;;;;;;;43.92;25.52;;;6.40;99.90;;;;;;5107616;27;20885;-75
2022/03/02 07:19:26;;;;;;;36.40;21.45;;;6.40;99.90;;;;;;5099771;28;20349;-75
2022/03/02 07:21:56;;;;;;;40.35;25.58;;;6.80;99.90;;;;;;5085497;27;20401;-74
2022/03/02 07:24:23;;;;;;;38.47;24.67;;;6.60;99.90;;;;;;5094077;28;20070;-75
2022/03/02 07:26:56;;;;;;;34.20;20.25;;;6.90;99.90;;;;;;5097225;27;20047;-75
2022/03/02 07:29:26;;;;;;;33.40;19.42;;;6.90;99.90;;;;;;5100771;28;20039;-75
2022/03/02 07:31:56;;;;;;;33.70;20.63;;;6.60;99.90;;;;;;5104294;28;20122;-75
2022/03/02 07:34:23;;;;;;;39.67;20.95;;;6.80;99.90;;;;;;5094996;28;20105;-73
2022/03/02 07:36:49;;;;;;;37.58;21.13;;;6.80;99.90;;;;;;5118516;27;20070;-74
2022/03/02 07:39:15;;;;;;;32.42;19.77;;;7.10;99.90;;;;;;5108480;27;20039;-74
2022/03/02 07:41:41;;;;;;;35.35;20.45;;;7.80;99.90;;;;;;5084165;28;20046;-74
2022/03/02 07:44:07;;;;;;;36.17;20.08;;;7.00;99.90;;;;;;5095922;27;20078;-73
2022/03/02 07:46:33;;;;;;;33.63;20.38;;;7.40;99.90;;;;;;5085441;28;20048;-73
2022/03/02 07:48:59;;;;;;;31.50;19.15;;;7.30;99.90;;;;;;5096559;27;20111;-73
2022/03/02 07:51:26;;;;;;;33.03;20.30;;;8.10;99.90;;;;;;5101504;27;20038;-74
2022/03/02 07:53:58;;;;;;;35.28;20.75;;;7.80;99.90;;;;;;5100114;28;20039;-73
2022/03/02 07:56:28;;;;;;;34.58;21.45;;;7.50;99.90;;;;;;5101447;28;20070;-74
2022/03/02 07:58:59;;;;;;;35.05;21.67;;;8.20;99.90;;;;;;5095468;28;20047;-74
2022/03/02 08:01:26;;;;;;;40.10;23.30;;;7.80;99.90;;;;;;5098427;28;20035;-74
2022/03/02 08:03:54;;;;;;;34.40;20.75;;;7.30;99.90;;;;;;5105623;28;20040;-72
2022/03/02 08:06:20;;;;;;;33.42;21.77;;;7.70;99.90;;;;;;5112549;27;20113;-73
2022/03/02 08:08:46;;;;;;;34.85;21.63;;;7.80;99.90;;;;;;5111248;28;20040;-74
2022/03/02 08:11:12;;;;;;;37.15;23.08;;;7.30;99.90;;;;;;5073082;28;20888;-73
2022/03/02 08:13:38;;;;;;;37.22;22.52;;;7.60;99.90;;;;;;5090695;28;20381;-72
2022/03/02 08:16:04;;;;;;;41.20;24.75;;;7.80;99.90;;;;;;5120215;27;20036;-73
2022/03/02 08:18:30;;;;;;;40.35;23.83;;;7.70;99.90;;;;;;5094532;28;20041;-72
2022/03/02 08:20:57;;;;;;;38.20;23.15;;;7.70;99.90;;;;;;5074737;28;20164;-72
2022/03/02 08:23:26;;;;;;;39.88;23.55;;;7.80;99.90;;;;;;5085994;28;20070;-74
2022/03/02 08:25:52;;;;;;;38.53;23.95;;;7.60;99.90;;;;;;5100713;27;20433;-72
2022/03/02 08:28:20;;;;;;;39.45;24.20;;;7.60;99.90;;;;;;5098016;28;20488;-72
2022/03/02 08:30:50;;;;;;;40.67;24.48;;;7.90;99.90;;;;;;5091601;28;20036;-72
2022/03/02 08:33:27;;;;;;;43.03;24.73;;;7.90;99.90;;;;;;5112368;27;20039;-72
2022/03/02 08:35:55;;;;;;;40.72;23.75;;;7.80;99.90;;;;;;5089302;28;20047;-72
2022/03/02 08:38:22;;;;;;;36.67;22.75;;;7.80;99.90;;;;;;5105970;28;20055;-73
2022/03/02 08:40:48;;;;;;;41.83;24.85;;;7.70;99.90;;;;;;5107977;28;20035;-73
2022/03/02 08:43:15;;;;;;;39.72;23.05;;;7.50;99.90;;;;;;5081615;28;20070;-73
2022/03/02 08:45:47;;;;;;;38.05;23.05;;;7.50;99.90;;;;;;5092069;28;20036;-71
2022/03/02 08:48:17;;;;;;;37.80;23.13;;;7.40;99.90;;;;;;5086957;28;20050;-70
2022/03/02 08:50:45;;;;;;;37.88;23.27;;;7.40;99.90;;;;;;5090059;28;20364;-72
2022/03/02 08:53:16;;;;;;;39.95;23.98;;;7.20;99.90;;;;;;5081154;28;20039;-71
2022/03/02 08:55:44;;;;;;;38.70;22.95;;;7.20;99.90;;;;;;5098545;27;20083;-71
2022/03/02 08:58:10;;;;;;;38.30;22.08;;;7.20;99.90;;;;;;5089971;28;20059;-72
2022/03/02 09:00:37;;;;;;;40.17;25.02;;;6.90;99.90;;;;;;5105262;27;20043;-71
2022/03/02 09:03:04;;;;;;;35.95;22.42;;;6.60;99.90;;;;;;5107761;28;20042;-71
2022/03/02 09:05:30;;;;;;;38.65;22.15;;;7.10;99.90;;;;;;5106505;27;20047;-70
2022/03/02 09:07:56;;;;;;;40.80;24.92;;;6.90;99.90;;;;;;5078242;28;20039;-70
2022/03/02 09:10:25;;;;;;;35.53;21.60;;;6.60;99.90;;;;;;5096231;28;20067;-73
2022/03/02 09:12:51;;;;;;;34.53;21.45;;;6.90;99.90;;;;;;5090540;28;20051;-73
2022/03/02 09:15:17;;;;;;;34.38;21.60;;;6.80;99.90;;;;;;5088439;28;20506;-75
2022/03/02 09:17:43;;;;;;;34.38;21.65;;;7.00;99.90;;;;;;5089454;28;20394;-71
2022/03/02 09:20:09;;;;;;;34.45;21.15;;;7.10;99.90;;;;;;5118389;27;20046;-71
2022/03/02 09:22:37;;;;;;;34.95;20.65;;;7.10;99.90;;;;;;5089064;28;20036;-71
2022/03/02 09:25:06;;;;;;;39.53;21.02;;;7.60;99.90;;;;;;5082309;28;20049;-72
2022/03/02 09:27:33;;;;;;;36.20;21.48;;;7.30;99.90;;;;;;5098500;28;20107;-71
2022/03/02 09:30:02;;;;;;;35.40;22.45;;;7.50;99.90;;;;;;5102043;28;20047;-69
2022/03/02 09:32:31;;;;;;;35.05;21.77;;;7.10;99.90;;;;;;5107707;27;20066;-70
2022/03/02 09:34:59;;;;;;;36.92;21.48;;;7.00;99.90;;;;;;5129417;27;20050;-70
2022/03/02 09:37:26;;;;;;;36.30;21.85;;;7.00;99.90;;;;;;5080351;28;20043;-69
2022/03/02 09:39:52;;;;;;;35.10;21.70;;;7.20;99.90;;;;;;5089131;28;20116;-70
2022/03/02 09:42:44;;;;;;;30.00;19.20;;;7.20;99.90;;;;;;5094938;28;20512;-71
2022/03/02 09:45:11;;;;;;;29.48;19.40;;;7.40;99.90;;;;;;5097017;27;20398;-70
2022/03/02 09:47:43;;;;;;;30.27;19.88;;;7.60;99.90;;;;;;5081180;28;20141;-70
2022/03/02 09:50:13;;;;;;;31.83;20.42;;;7.70;99.90;;;;;;5079689;28;20135;-71
2022/03/02 09:52:41;;;;;;;32.58;20.45;;;7.70;99.90;;;;;;5099261;28;20128;-70
2022/03/02 09:55:13;;;;;;;35.83;21.75;;;7.80;99.90;;;;;;5074534;28;20047;-70
2022/03/02 09:57:47;;;;;;;35.80;21.50;;;7.70;99.90;;;;;;5093516;28;20048;-70
2022/03/02 10:00:15;;;;;;;29.80;18.73;;;7.80;99.90;;;;;;5105169;28;20391;-71
2022/03/02 10:02:46;;;;;;;28.73;18.05;;;8.00;99.90;;;;;;5114178;27;20031;-71
2022/03/02 10:05:16;;;;;;;31.05;19.90;;;8.00;99.90;;;;;;5113436;28;20051;-71
2022/03/02 10:07:52;;;;;;;28.48;18.08;;;8.50;99.90;;;;;;5098774;28;20058;-71
2022/03/02 10:10:22;;;;;;;30.38;19.15;;;8.40;99.90;;;;;;5107991;28;20403;-75
2022/03/02 10:12:50;;;;;;;31.55;19.17;;;8.20;99.90;;;;;;5093075;28;20055;-72
2022/03/02 10:15:16;;;;;;;30.48;20.13;;;8.20;99.90;;;;;;5098392;28;20043;-71
2022/03/02 10:17:45;;;;;;;32.95;18.83;;;8.60;99.90;;;;;;5112322;27;20036;-71
2022/03/02 10:20:13;;;;;;;26.35;17.13;;;8.70;99.90;;;;;;5109530;28;20039;-72
2022/03/02 10:22:39;;;;;;;29.13;17.48;;;9.00;99.90;;;;;;5108822;27;20039;-72
2022/03/02 10:25:08;;;;;;;28.95;18.35;;;9.30;99.90;;;;;;5125433;27;20597;-71
2022/03/02 10:27:35;;;;;;;28.95;18.58;;;9.00;99.90;;;;;;5109345;28;20642;-71
2022/03/02 10:30:06;;;;;;;27.75;18.08;;;8.90;99.90;;;;;;5104580;28;20043;-72
2022/03/02 10:32:36;;;;;;;27.42;18.23;;;9.00;99.90;;;;;;5108643;27;20263;-71
2022/03/02 10:35:07;;;;;;;26.83;17.77;;;9.10;99.90;;;;;;5108150;27;20114;-71
2022/03/02 10:37:36;;;;;;;26.15;17.15;;;8.80;99.90;;;;;;5093021;28;20086;-71
2022/03/02 10:40:17;;;;;;;28.20;16.73;;;9.10;99.90;;;;;;5091293;28;20565;-72
2022/03/02 10:42:57;;;;;;;25.63;17.00;;;9.20;99.90;;;;;;5108862;28;20906;-72
2022/03/02 10:45:24;;;;;;;28.25;17.67;;;9.10;99.90;;;;;;5118771;27;20098;-73
2022/03/02 10:48:22;;;;;;;26.45;18.13;;;9.10;99.90;;;;;;5102484;27;20040;-71
2022/03/02 10:50:51;;;;;;;28.65;18.65;;;8.60;99.90;;;;;;5090163;28;20158;-71
2022/03/02 10:53:19;;;;;;;28.08;17.65;;;8.40;99.90;;;;;;5083688;28;20043;-71
2022/03/02 10:55:47;;;;;;;24.88;16.55;;;8.90;99.90;;;;;;5108779;28;20487;-72
2022/03/02 10:58:15;;;;;;;30.15;19.05;;;9.00;99.90;;;;;;5098527;27;20059;-71
2022/03/02 11:00:41;;;;;;;27.65;18.77;;;9.00;99.90;;;;;;5100082;27;20171;-71
2022/03/02 11:03:08;;;;;;;26.50;17.10;;;9.10;99.90;;;;;;5097801;27;20035;-71
2022/03/02 11:05:35;;;;;;;23.73;16.33;;;9.00;99.90;;;;;;5107661;28;20593;-72
2022/03/02 11:08:03;;;;;;;31.08;19.02;;;9.20;99.90;;;;;;5093884;27;20043;-72
2022/03/02 11:10:37;;;;;;;26.33;16.92;;;9.30;99.90;;;;;;5108623;28;20051;-72
2022/03/02 11:13:15;;;;;;;24.53;16.30;;;9.50;99.90;;;;;;5092617;28;20093;-72
2022/03/02 11:15:47;;;;;;;25.27;16.75;;;9.50;99.90;;;;;;5105792;28;20130;-74
2022/03/02 11:18:17;;;;;;;24.48;15.35;;;9.20;99.90;;;;;;5111760;27;20063;-72
2022/03/02 11:21:11;;;;;;;27.50;17.65;;;9.20;99.90;;;;;;5111362;27;20043;-72
2022/03/02 11:23:52;;;;;;;27.45;17.60;;;9.30;99.90;;;;;;5084279;28;20054;-72
2022/03/02 11:26:24;;;;;;;28.40;18.55;;;9.30;99.90;;;;;;5085939;27;20047;-72
2022/03/02 11:28:58;;;;;;;24.65;16.73;;;9.40;99.90;;;;;;5074838;28;20403;-73
2022/03/02 11:31:30;;;;;;;26.50;17.90;;;9.50;99.90;;;;;;5102203;28;20047;-73
2022/03/02 11:34:34;;;;;;;29.98;17.83;;;9.60;99.90;;;;;;5101988;28;20067;-73
2022/03/02 11:37:05;;;;;;;27.23;17.55;;;9.80;99.90;;;;;;5103693;27;20423;-73
2022/03/02 11:39:31;;;;;;;28.30;17.10;;;9.90;99.90;;;;;;5103384;28;20126;-72
2022/03/02 11:42:02;;;;;;;25.20;17.25;;;9.70;99.90;;;;;;5088612;27;20039;-72
2022/03/02 11:44:39;;;;;;;23.58;17.55;;;9.60;99.90;;;;;;5103527;28;20159;-72
2022/03/02 11:47:15;;;;;;;23.80;15.75;;;9.60;99.90;;;;;;5105200;27;20051;-72
2022/03/02 11:49:53;;;;;;;26.30;16.45;;;9.70;99.90;;;;;;5104947;27;20040;-71
2022/03/02 11:52:21;;;;;;;25.02;17.27;;;9.60;99.90;;;;;;5112558;27;20119;-72
2022/03/02 11:54:52;;;;;;;26.20;16.63;;;9.80;99.90;;;;;;5076580;28;20044;-71
2022/03/02 11:57:21;;;;;;;27.10;17.92;;;9.80;99.90;;;;;;5095248;27;20089;-72
2022/03/02 11:59:48;;;;;;;26.17;17.95;;;9.60;99.90;;;;;;5088156;28;20709;-71
2022/03/02 12:02:21;;;;;;;24.02;16.85;;;9.90;99.90;;;;;;5103321;28;20039;-71
2022/03/02 12:05:18;;;;;;;24.65;16.75;;;9.50;99.90;;;;;;5110195;27;20061;-72
2022/03/02 12:07:52;;;;;;;27.90;17.20;;;9.50;99.90;;;;;;5070793;28;20047;-71
2022/03/02 12:10:28;;;;;;;27.08;18.08;;;9.30;99.90;;;;;;5083455;28;20047;-71
2022/03/02 12:12:56;;;;;;;25.27;16.95;;;9.20;99.90;;;;;;5100832;28;20122;-72
2022/03/02 12:15:25;;;;;;;25.90;18.05;;;9.30;99.90;;;;;;5084590;28;20048;-72
2022/03/02 12:17:53;;;;;;;26.65;18.05;;;9.30;99.90;;;;;;5105412;28;20053;-71
2022/03/02 12:20:21;;;;;;;28.13;17.85;;;9.50;99.90;;;;;;5110113;28;20079;-72
2022/03/02 12:22:56;;;;;;;25.13;17.05;;;9.80;99.90;;;;;;5109085;27;20154;-71
2022/03/02 12:25:24;;;;;;;28.58;18.33;;;9.40;99.90;;;;;;5106199;27;20043;-71
2022/03/02 12:28:01;;;;;;;23.73;16.33;;;9.60;99.90;;;;;;5100940;27;20084;-71
2022/03/02 12:30:32;;;;;;;24.75;16.70;;;9.60;99.90;;;;;;5100998;28;20054;-71
2022/03/02 12:32:58;;;;;;;25.10;17.05;;;9.80;99.90;;;;;;5069256;28;20486;-71
2022/03/02 12:35:25;;;;;;;25.50;17.13;;;9.50;99.90;;;;;;5088326;28;20107;-72
2022/03/02 12:37:57;;;;;;;27.75;17.48;;;9.80;99.90;;;;;;5088010;28;20096;-72
2022/03/02 12:40:28;;;;;;;24.27;17.33;;;10.00;99.90;;;;;;5085299;28;20127;-72